Archival Weather

Chicago O'Hare International

Chicago, Illinois (KORD)

Report from: Monday, January 2, 2023 7:51 AM CST
Current time: Monday, June 17, 2024 3:24 AM CDT

Current weather – Weather history – Daily summaries
Weather forecast

Temperature1.7°C (35.1°F)
Wind chill0.1°C (32.2°F)
Dew point0.0°C (32.0°F)
Winds 3 kts (1.5 m/s, 3.5 mph) North-Northeast (20°)
Visibility10 mi. (16.1 km)
Clouds Ceiling: Broken clouds 15,000 ft. (4,572 m)
Overcast 25,000 ft. (7,620 m)
Altimeter30.06 in.Hg (1018 mB)
Relative humidity88 %
Density altitude-1,703 ft. (-519 m)
Sea-level pressure101.8 kPa (1018 mB, 30.07 in.Hg)
Remarks Automated weather observing station with precipitation discriminator
Flight conditions Visual Meteorological Conditions
Raw dataKORD 021351Z 02003KT 10SM BKN150 OVC250 02/00 A3006 RMK AO2 SLP184 T00170000
An error has occurred. This application may no longer respond until reloaded. Reload 🗙